createdAt,value
2017-11-21T00:01:01.155Z,24.97
2017-11-21T00:03:27.379Z,23.83
2017-11-21T00:05:53.668Z,27.83
2017-11-21T00:08:20.036Z,25.80
2017-11-21T00:10:46.250Z,30.43
2017-11-21T00:13:13.268Z,26.30
2017-11-21T00:15:39.521Z,28.13
2017-11-21T00:18:05.909Z,31.17
2017-11-21T00:20:32.241Z,24.80
2017-11-21T00:22:58.819Z,26.70
2017-11-21T00:25:25.091Z,24.63
2017-11-21T00:27:52.151Z,26.03
2017-11-21T00:30:18.383Z,24.63
2017-11-21T00:32:44.631Z,19.63
2017-11-21T00:35:11.030Z,18.20
2017-11-21T00:37:37.347Z,17.27
2017-11-21T00:40:04.326Z,19.77
2017-11-21T00:42:30.627Z,19.60
2017-11-21T00:44:56.980Z,18.73
2017-11-21T00:47:23.986Z,15.73
2017-11-21T00:49:53.070Z,17.63
2017-11-21T00:52:19.355Z,17.27
2017-11-21T00:54:45.634Z,17.87
2017-11-21T00:57:11.854Z,19.93
2017-11-21T00:59:38.100Z,17.80
2017-11-21T01:02:05.095Z,21.63
2017-11-21T01:04:31.370Z,20.93
2017-11-21T01:06:57.622Z,18.77
2017-11-21T01:09:23.930Z,17.23
2017-11-21T01:11:50.161Z,19.53
2017-11-21T01:14:16.503Z,17.50
2017-11-21T01:16:42.887Z,19.30
2017-11-21T01:19:09.126Z,19.80
2017-11-21T01:21:35.443Z,19.60
2017-11-21T01:24:01.714Z,20.87
2017-11-21T01:26:28.816Z,19.30
2017-11-21T01:28:55.783Z,23.40
2017-11-21T01:31:23.322Z,30.37
2017-11-21T01:33:49.594Z,29.33
2017-11-21T01:36:15.896Z,33.63
2017-11-21T01:38:42.168Z,36.67
2017-11-21T01:41:08.418Z,40.73
2017-11-21T01:43:35.482Z,39.90
2017-11-21T01:46:01.790Z,40.80
2017-11-21T01:48:28.846Z,43.57
2017-11-21T01:50:55.255Z,41.37
2017-11-21T01:53:21.555Z,37.60
2017-11-21T01:55:48.526Z,41.53
2017-11-21T01:58:14.809Z,41.10
2017-11-21T02:00:41.097Z,44.13
2017-11-21T02:03:07.374Z,41.13
2017-11-21T02:05:33.663Z,41.57
2017-11-21T02:08:00.668Z,36.93
2017-11-21T02:10:26.940Z,41.27
2017-11-21T02:12:53.247Z,32.93
2017-11-21T02:15:19.551Z,34.70
2017-11-21T02:17:45.824Z,33.70
2017-11-21T02:20:12.095Z,32.93
2017-11-21T02:22:38.398Z,35.80
2017-11-21T02:25:04.666Z,38.43
2017-11-21T02:27:30.927Z,36.30
2017-11-21T02:29:57.191Z,38.43
2017-11-21T02:32:23.862Z,38.97
2017-11-21T02:34:50.120Z,38.83
2017-11-21T02:37:16.376Z,44.87
2017-11-21T02:39:43.386Z,37.20
2017-11-21T02:42:09.653Z,39.63
2017-11-21T02:44:36.654Z,37.43
2017-11-21T02:47:02.944Z,38.10
2017-11-21T02:49:29.218Z,36.93
2017-11-21T02:51:55.501Z,38.43
2017-11-21T02:54:22.559Z,30.83
2017-11-21T02:56:49.573Z,29.70
2017-11-21T02:59:15.858Z,26.80
2017-11-21T03:01:42.100Z,28.77
2017-11-21T03:04:08.360Z,24.03
2017-11-21T03:06:34.615Z,23.87
2017-11-21T03:09:00.875Z,26.83
2017-11-21T03:11:27.106Z,22.03
2017-11-21T03:13:53.375Z,24.13
2017-11-21T03:16:20.475Z,22.20
2017-11-21T03:18:47.494Z,21.20
2017-11-21T03:21:26.149Z,22.87
2017-11-21T03:24:11.180Z,24.60
2017-11-21T03:26:38.087Z,24.23
2017-11-21T03:29:04.451Z,24.40
2017-11-21T03:31:31.473Z,21.27
2017-11-21T03:33:57.731Z,32.83
2017-11-21T03:36:23.986Z,35.17
2017-11-21T03:38:50.229Z,31.80
2017-11-21T03:41:16.454Z,37.80
2017-11-21T03:43:42.709Z,36.63
2017-11-21T03:46:08.983Z,46.47
2017-11-21T03:48:35.288Z,47.90
2017-11-21T03:51:02.302Z,46.43
2017-11-21T03:53:28.565Z,48.67
2017-11-21T03:55:55.016Z,46.80
2017-11-21T03:58:21.283Z,47.50
2017-11-21T04:00:52.420Z,41.53
2017-11-21T04:03:18.661Z,46.63
2017-11-21T04:05:44.914Z,50.20
2017-11-21T04:08:11.202Z,53.97
2017-11-21T04:10:37.459Z,53.37
2017-11-21T04:13:03.827Z,51.60
2017-11-21T04:15:30.100Z,57.17
2017-11-21T04:17:58.626Z,50.93
2017-11-21T04:20:25.624Z,54.90
2017-11-21T04:22:51.890Z,56.03
2017-11-21T04:25:18.176Z,63.70
2017-11-21T04:27:44.443Z,54.57
2017-11-21T04:30:10.713Z,58.93
2017-11-21T04:32:36.974Z,65.73
2017-11-21T04:35:03.958Z,58.33
2017-11-21T04:37:30.191Z,59.07
2017-11-21T04:39:57.175Z,57.00
2017-11-21T04:42:23.414Z,55.50
2017-11-21T04:44:49.766Z,63.57
2017-11-21T04:47:16.019Z,59.83
2017-11-21T04:49:42.268Z,51.37
2017-11-21T04:52:09.350Z,51.27
2017-11-21T04:54:36.378Z,42.73
2017-11-21T04:57:03.393Z,39.30
2017-11-21T04:59:29.646Z,34.43
2017-11-21T05:01:55.900Z,28.03
2017-11-21T05:04:22.241Z,30.10
2017-11-21T05:06:48.483Z,24.37
2017-11-21T05:09:14.779Z,20.90
2017-11-21T05:11:41.052Z,16.77
2017-11-21T05:14:07.624Z,16.57
2017-11-21T05:16:34.695Z,12.73
2017-11-21T05:19:01.006Z,13.63
2017-11-21T05:21:27.252Z,11.10
2017-11-21T05:23:53.520Z,12.30
2017-11-21T05:26:19.795Z,9.60
2017-11-21T05:28:46.047Z,10.87
2017-11-21T05:31:13.038Z,13.03
2017-11-21T05:33:39.516Z,12.10
2017-11-21T05:36:06.176Z,17.30
2017-11-21T05:38:33.203Z,14.20
2017-11-21T05:40:59.570Z,17.10
2017-11-21T05:43:25.819Z,25.00
2017-11-21T05:45:52.051Z,28.63
2017-11-21T05:48:18.338Z,33.90
2017-11-21T05:50:44.629Z,33.70
2017-11-21T05:53:10.891Z,37.80
2017-11-21T05:55:37.936Z,35.23
2017-11-21T05:58:05.006Z,42.67
2017-11-21T06:00:31.266Z,52.53
2017-11-21T06:02:57.511Z,45.27
2017-11-21T06:05:25.659Z,50.13
2017-11-21T06:07:51.956Z,48.27
2017-11-21T06:10:18.215Z,48.30
2017-11-21T06:12:44.503Z,50.27
2017-11-21T06:15:11.569Z,56.57
2017-11-21T06:17:39.705Z,45.07
2017-11-21T06:20:10.072Z,51.83
2017-11-21T06:22:36.379Z,51.60
2017-11-21T06:25:02.653Z,52.47
2017-11-21T06:27:28.933Z,58.70
2017-11-21T06:29:55.759Z,52.43
2017-11-21T06:32:22.027Z,53.27
2017-11-21T06:34:48.280Z,55.80
2017-11-21T06:37:14.527Z,49.37
2017-11-21T06:39:40.783Z,57.50
2017-11-21T06:42:07.011Z,55.43
2017-11-21T06:44:33.283Z,50.13
2017-11-21T06:46:59.534Z,55.87
2017-11-21T06:49:25.787Z,53.77
2017-11-21T06:51:52.803Z,49.17
2017-11-21T06:54:19.039Z,52.07
2017-11-21T06:56:45.284Z,55.23
2017-11-21T06:59:11.550Z,52.57
2017-11-21T07:01:37.847Z,48.63
2017-11-21T07:04:04.823Z,46.23
2017-11-21T07:06:31.075Z,47.93
2017-11-21T07:08:57.323Z,46.50
2017-11-21T07:11:23.598Z,53.30
2017-11-21T07:13:49.850Z,47.30
2017-11-21T07:16:16.139Z,47.17
2017-11-21T07:18:42.381Z,47.07
2017-11-21T07:21:08.666Z,48.77
2017-11-21T07:23:35.685Z,47.50
2017-11-21T07:26:01.916Z,45.03
2017-11-21T07:28:28.155Z,45.73
2017-11-21T07:30:54.423Z,52.00
2017-11-21T07:33:20.760Z,43.53
2017-11-21T07:35:47.059Z,42.70
2017-11-21T07:38:14.043Z,40.80
2017-11-21T07:40:40.514Z,41.17
2017-11-21T07:43:06.927Z,40.30
2017-11-21T07:45:33.442Z,34.70
2017-11-21T07:47:59.791Z,37.40
2017-11-21T07:50:26.051Z,35.40
2017-11-21T07:52:52.309Z,34.97
2017-11-21T07:55:18.561Z,31.20
2017-11-21T07:57:44.803Z,31.40
2017-11-21T08:00:11.090Z,29.23
2017-11-21T08:02:37.342Z,32.73
2017-11-21T08:05:03.636Z,31.33
2017-11-21T08:07:30.911Z,30.13
2017-11-21T08:09:57.267Z,23.63
2017-11-21T08:12:24.286Z,25.67
2017-11-21T08:14:50.564Z,28.73
2017-11-21T08:17:20.011Z,30.33
2017-11-21T08:19:46.393Z,24.43
2017-11-21T08:22:12.676Z,25.97
2017-11-21T08:24:38.946Z,20.43
2017-11-21T08:27:05.216Z,24.20
2017-11-21T08:29:31.502Z,23.37
2017-11-21T08:31:58.506Z,21.47
2017-11-21T08:34:24.726Z,20.87
2017-11-21T08:36:51.851Z,19.83
2017-11-21T08:39:18.868Z,18.90
2017-11-21T08:41:45.143Z,17.97
2017-11-21T08:44:11.400Z,18.60
2017-11-21T08:46:37.639Z,16.40
2017-11-21T08:49:03.855Z,13.77
2017-11-21T08:51:30.145Z,14.00
2017-11-21T08:53:56.398Z,12.60
2017-11-21T08:56:23.448Z,13.83
2017-11-21T08:58:49.727Z,9.07
2017-11-21T09:01:16.107Z,9.53
2017-11-21T09:03:42.338Z,10.60
2017-11-21T09:06:08.584Z,10.07
2017-11-21T09:08:34.826Z,7.80
2017-11-21T09:11:01.165Z,5.03
2017-11-21T09:13:27.419Z,4.17
2017-11-21T09:15:53.721Z,4.40
2017-11-21T09:18:20.010Z,4.33
2017-11-21T09:20:46.232Z,4.10
2017-11-21T09:23:12.475Z,4.47
2017-11-21T09:25:39.497Z,2.80
2017-11-21T09:28:05.749Z,3.13
2017-11-21T09:30:32.003Z,3.77
2017-11-21T09:32:58.239Z,3.43
2017-11-21T09:35:24.509Z,3.07
2017-11-21T09:37:51.031Z,2.60
2017-11-21T09:40:18.355Z,2.30
2017-11-21T09:42:44.603Z,2.53
2017-11-21T09:45:11.593Z,2.27
2017-11-21T09:47:37.865Z,1.80
2017-11-21T09:50:04.876Z,1.93
2017-11-21T09:52:31.106Z,1.53
2017-11-21T09:54:58.083Z,2.00
2017-11-21T09:57:27.126Z,2.23
2017-11-21T09:59:54.131Z,1.90
2017-11-21T10:02:20.423Z,2.13
2017-11-21T10:04:46.683Z,2.30
2017-11-21T10:07:12.957Z,2.57
2017-11-21T10:09:39.222Z,2.40
2017-11-21T10:12:05.458Z,3.43
2017-11-21T10:14:33.422Z,3.03
2017-11-21T10:17:00.455Z,5.03
2017-11-21T10:19:27.470Z,3.40
2017-11-21T10:21:54.448Z,4.37
2017-11-21T10:24:20.749Z,4.33
2017-11-21T10:26:47.750Z,4.27
2017-11-21T10:29:13.990Z,4.20
2017-11-21T10:31:44.994Z,3.30
2017-11-21T10:34:11.238Z,4.70
2017-11-21T10:36:38.216Z,3.87
2017-11-21T10:39:05.245Z,5.00
2017-11-21T10:41:32.227Z,4.00
2017-11-21T10:43:58.504Z,3.80
2017-11-21T10:46:24.742Z,4.00
2017-11-21T10:48:57.174Z,4.80
2017-11-21T10:51:24.179Z,4.60
2017-11-21T10:53:50.441Z,3.90
2017-11-21T10:56:16.668Z,5.90
2017-11-21T10:58:42.927Z,3.73
2017-11-21T11:01:09.299Z,5.10
2017-11-21T11:03:36.323Z,5.17
2017-11-21T11:06:02.570Z,4.83
2017-11-21T11:08:28.827Z,6.20
2017-11-21T11:10:55.690Z,5.93
2017-11-21T11:13:23.486Z,5.03
2017-11-21T11:15:49.735Z,5.10
2017-11-21T11:18:15.989Z,6.87
2017-11-21T11:20:42.231Z,7.13
2017-11-21T11:23:09.275Z,6.70
2017-11-21T11:25:36.299Z,7.03
2017-11-21T11:28:04.447Z,7.97
2017-11-21T11:30:31.479Z,8.07
2017-11-21T11:32:57.690Z,8.00
2017-11-21T11:35:23.947Z,8.20
2017-11-21T11:37:50.243Z,8.87
2017-11-21T11:40:16.618Z,8.60
2017-11-21T11:42:42.894Z,10.93
2017-11-21T11:45:13.567Z,10.37
2017-11-21T11:47:40.566Z,12.00
2017-11-21T11:50:06.817Z,13.90
2017-11-21T11:52:33.090Z,12.80
2017-11-21T11:54:59.359Z,14.53
2017-11-21T11:57:25.646Z,15.43
2017-11-21T11:59:51.884Z,11.17
2017-11-21T12:02:21.595Z,11.57
2017-11-21T12:04:48.567Z,14.07
2017-11-21T12:07:14.844Z,14.27
2017-11-21T12:09:41.107Z,14.83
2017-11-21T12:12:07.339Z,14.47
2017-11-21T12:14:34.355Z,14.73
2017-11-21T12:17:00.643Z,14.43
2017-11-21T12:19:33.141Z,14.60
2017-11-21T12:22:01.314Z,14.07
2017-11-21T12:24:27.562Z,13.97
2017-11-21T12:27:05.264Z,12.93
2017-11-21T12:29:31.740Z,16.53
2017-11-21T12:32:00.154Z,12.77
2017-11-21T12:34:26.452Z,13.63
2017-11-21T12:36:52.682Z,12.23
2017-11-21T12:39:18.915Z,13.57
2017-11-21T12:41:45.187Z,13.40
2017-11-21T12:44:12.948Z,13.93
2017-11-21T12:46:39.335Z,14.60
2017-11-21T12:49:06.567Z,13.23
2017-11-21T12:51:39.674Z,13.90
2017-11-21T12:54:05.918Z,11.97
2017-11-21T12:56:32.991Z,12.77
2017-11-21T12:58:59.214Z,12.20
2017-11-21T13:01:25.472Z,12.13
2017-11-21T13:03:51.739Z,12.87
2017-11-21T13:06:17.993Z,12.97
2017-11-21T13:08:48.233Z,11.53
2017-11-21T13:11:16.254Z,10.80
2017-11-21T13:13:42.532Z,9.70
2017-11-21T13:16:08.775Z,10.13
2017-11-21T13:18:35.057Z,10.27
2017-11-21T13:21:03.366Z,8.57
2017-11-21T13:23:29.638Z,9.73
2017-11-21T13:25:57.827Z,9.40
2017-11-21T13:28:25.652Z,9.97
2017-11-21T13:30:55.670Z,8.67
2017-11-21T13:33:24.876Z,9.40
2017-11-21T13:35:52.017Z,9.67
2017-11-21T13:38:18.455Z,11.33
2017-11-21T13:40:54.075Z,10.57
2017-11-21T13:43:20.713Z,10.90
2017-11-21T13:45:47.640Z,11.93
2017-11-21T13:48:13.970Z,9.80
2017-11-21T13:50:41.037Z,11.00
2017-11-21T13:53:17.071Z,10.40
2017-11-21T13:55:59.147Z,10.97
2017-11-21T13:58:25.540Z,10.60
2017-11-21T14:00:53.763Z,10.20
2017-11-21T14:03:20.353Z,10.77
2017-11-21T14:05:46.622Z,12.23
2017-11-21T14:08:12.926Z,12.50
2017-11-21T14:10:39.183Z,12.00
2017-11-21T14:13:06.360Z,12.77
2017-11-21T14:15:39.093Z,12.27
2017-11-21T14:18:05.420Z,12.87
2017-11-21T14:20:31.679Z,11.63
2017-11-21T14:22:57.917Z,13.40
2017-11-21T14:25:24.170Z,10.33
2017-11-21T14:27:50.430Z,13.70
2017-11-21T14:30:16.659Z,12.90
2017-11-21T14:32:49.767Z,14.53
2017-11-21T14:35:16.028Z,12.23
2017-11-21T14:37:42.261Z,13.80
2017-11-21T14:40:08.560Z,13.37
2017-11-21T14:42:34.870Z,13.13
2017-11-21T14:45:01.867Z,13.70
2017-11-21T14:47:28.129Z,16.57
2017-11-21T14:49:55.489Z,14.10
2017-11-21T14:52:22.541Z,15.60
2017-11-21T14:54:50.323Z,14.50
2017-11-21T14:57:16.572Z,16.70
2017-11-21T14:59:42.831Z,16.00
2017-11-21T15:02:09.089Z,16.63
2017-11-21T15:04:36.107Z,18.93
2017-11-21T15:07:02.397Z,21.43
2017-11-21T15:09:31.939Z,18.90
2017-11-21T15:11:58.275Z,19.47
2017-11-21T15:14:24.506Z,19.37
2017-11-21T15:16:50.751Z,20.83
2017-11-21T15:19:17.059Z,22.13
2017-11-21T15:21:43.321Z,20.80
2017-11-21T15:24:09.595Z,21.57
2017-11-21T15:26:37.418Z,21.20
2017-11-21T15:29:03.735Z,20.20
2017-11-21T15:31:30.011Z,26.73
2017-11-21T15:33:56.290Z,20.73
2017-11-21T15:36:22.615Z,22.70
2017-11-21T15:38:49.034Z,21.10
2017-11-21T15:41:15.321Z,23.60
2017-11-21T15:43:42.322Z,25.30
2017-11-21T15:46:08.599Z,22.20
2017-11-21T15:48:34.920Z,23.20
2017-11-21T15:51:01.254Z,28.30
2017-11-21T15:53:27.561Z,32.27
2017-11-21T15:55:53.804Z,24.40
2017-11-21T15:58:20.092Z,24.87
2017-11-21T16:00:47.199Z,26.23
2017-11-21T16:03:13.447Z,24.37
2017-11-21T16:05:39.755Z,26.30
2017-11-21T16:08:06.067Z,23.63
2017-11-21T16:10:32.405Z,23.90
2017-11-21T16:12:58.633Z,26.03
2017-11-21T16:15:25.041Z,26.87
2017-11-21T16:17:51.467Z,27.27
2017-11-21T16:20:17.795Z,32.17
2017-11-21T16:22:44.090Z,29.57
2017-11-21T16:25:10.747Z,28.90
2017-11-21T16:27:37.751Z,36.27
2017-11-21T16:30:04.792Z,28.27
2017-11-21T16:32:31.016Z,24.90
2017-11-21T16:34:57.255Z,26.63
2017-11-21T16:37:23.796Z,24.47
2017-11-21T16:39:51.922Z,30.53
2017-11-21T16:42:18.215Z,26.40
2017-11-21T16:44:45.192Z,25.93
2017-11-21T16:47:11.559Z,25.40
2017-11-21T16:49:37.850Z,28.90
2017-11-21T16:52:04.123Z,27.40
2017-11-21T16:54:30.370Z,26.47
2017-11-21T16:56:56.638Z,25.20
2017-11-21T16:59:23.146Z,22.50
2017-11-21T17:01:49.479Z,26.30
2017-11-21T17:04:16.793Z,28.70
2017-11-21T17:06:43.171Z,32.63
2017-11-21T17:09:09.447Z,26.67
2017-11-21T17:11:36.490Z,23.33
2017-11-21T17:14:08.948Z,27.60
2017-11-21T17:16:35.262Z,28.87
2017-11-21T17:19:01.581Z,26.90
2017-11-21T17:21:27.887Z,31.37
2017-11-21T17:23:54.879Z,29.07
2017-11-21T17:26:21.123Z,24.50
2017-11-21T17:28:48.072Z,28.80
2017-11-21T17:31:14.442Z,24.70
2017-11-21T17:33:40.743Z,26.27
2017-11-21T17:36:07.185Z,29.90
2017-11-21T17:38:34.215Z,25.67
2017-11-21T17:41:00.536Z,24.50
2017-11-21T17:43:26.934Z,28.10
2017-11-21T17:45:53.990Z,22.87
2017-11-21T17:48:20.974Z,22.23
2017-11-21T17:50:47.228Z,22.80
2017-11-21T17:53:14.881Z,22.97
2017-11-21T17:55:41.917Z,21.70
2017-11-21T17:58:08.263Z,20.83
2017-11-21T18:00:35.246Z,24.80
2017-11-21T18:03:01.595Z,22.10
2017-11-21T18:05:27.893Z,20.13
2017-11-21T18:07:54.194Z,22.97
2017-11-21T18:10:20.499Z,23.97
2017-11-21T18:12:46.755Z,26.30
2017-11-21T18:15:13.739Z,24.93
2017-11-21T18:17:40.014Z,24.23
2017-11-21T18:20:07.102Z,24.77
2017-11-21T18:22:34.177Z,25.40
2017-11-21T18:25:00.513Z,24.33
2017-11-21T18:27:27.478Z,26.10
2017-11-21T18:29:53.819Z,23.50
2017-11-21T18:32:24.980Z,29.77
2017-11-21T18:34:51.251Z,27.03
2017-11-21T18:37:17.534Z,25.03
2017-11-21T18:39:43.882Z,23.23
2017-11-21T18:42:10.146Z,26.93
2017-11-21T18:44:36.425Z,26.70
2017-11-21T18:47:02.687Z,22.20
2017-11-21T18:49:29.490Z,24.07
2017-11-21T18:51:55.724Z,21.70
2017-11-21T18:54:22.101Z,21.83
2017-11-21T18:56:48.344Z,20.00
2017-11-21T18:59:14.751Z,25.63
2017-11-21T19:01:41.090Z,19.13
2017-11-21T19:04:08.047Z,21.97
2017-11-21T19:09:06.418Z,21.83
2017-11-21T19:11:32.671Z,21.17
2017-11-21T19:13:58.902Z,25.10
2017-11-21T19:16:25.169Z,19.23
2017-11-21T19:18:52.491Z,21.80
2017-11-21T19:21:18.763Z,21.83
2017-11-21T19:23:45.871Z,22.40
2017-11-21T19:26:12.907Z,18.83
2017-11-21T19:28:39.978Z,27.60
2017-11-21T19:31:07.012Z,21.10
2017-11-21T19:33:33.425Z,23.27
2017-11-21T19:35:59.797Z,26.13
2017-11-21T19:38:26.808Z,25.53
2017-11-21T19:40:53.081Z,22.37
2017-11-21T19:43:19.431Z,19.00
2017-11-21T19:45:45.664Z,20.50
2017-11-21T19:48:11.950Z,32.73
2017-11-21T19:50:38.530Z,27.90
2017-11-21T19:53:04.778Z,26.07
2017-11-21T19:55:31.049Z,23.30
2017-11-21T19:57:57.314Z,20.10
2017-11-21T20:00:24.341Z,21.67
2017-11-21T20:02:50.578Z,19.77
2017-11-21T20:05:16.820Z,25.77
2017-11-21T20:07:43.191Z,22.97
2017-11-21T20:10:09.885Z,17.37
2017-11-21T20:12:36.179Z,19.80
2017-11-21T20:15:02.511Z,16.47
2017-11-21T20:17:28.811Z,17.33
2017-11-21T20:19:56.158Z,18.20
2017-11-21T20:22:22.426Z,16.70
2017-11-21T20:24:48.707Z,20.30
2017-11-21T20:27:14.967Z,18.90
2017-11-21T20:29:41.980Z,16.57
2017-11-21T20:32:08.243Z,17.37
2017-11-21T20:34:34.530Z,21.07
2017-11-21T20:37:00.786Z,17.43
2017-11-21T20:39:27.042Z,19.10
2017-11-21T20:41:53.295Z,13.40
2017-11-21T20:44:19.595Z,14.03
2017-11-21T20:46:45.872Z,14.80
2017-11-21T20:49:12.079Z,16.10
2017-11-21T20:51:38.517Z,18.83
2017-11-21T20:54:04.830Z,23.40
2017-11-21T20:56:31.098Z,15.67
2017-11-21T20:58:57.351Z,15.50
2017-11-21T21:01:23.602Z,19.10
2017-11-21T21:03:49.958Z,14.50
2017-11-21T21:06:16.215Z,16.60
2017-11-21T21:08:42.506Z,15.47
2017-11-21T21:11:08.820Z,16.07
2017-11-21T21:13:35.884Z,18.67
2017-11-21T21:16:02.887Z,16.73
2017-11-21T21:18:29.123Z,23.00
2017-11-21T21:20:55.359Z,15.50
2017-11-21T21:23:22.326Z,17.50
2017-11-21T21:25:48.603Z,17.37
2017-11-21T21:28:15.615Z,16.03
2017-11-21T21:30:41.889Z,18.53
2017-11-21T21:33:08.172Z,16.10
2017-11-21T21:35:35.193Z,17.63
2017-11-21T21:38:01.459Z,17.23
2017-11-21T21:40:27.739Z,21.07
2017-11-21T21:42:54.000Z,25.47
2017-11-21T21:45:20.253Z,23.77
2017-11-21T21:47:46.811Z,17.00
2017-11-21T21:50:13.075Z,22.47
2017-11-21T21:52:39.475Z,17.10
2017-11-21T21:55:05.703Z,18.67
2017-11-21T21:57:31.978Z,16.37
2017-11-21T21:59:58.232Z,18.33
2017-11-21T22:02:24.499Z,18.83
2017-11-21T22:04:51.497Z,17.97
2017-11-21T22:07:17.738Z,17.17
2017-11-21T22:09:43.999Z,16.43
2017-11-21T22:12:11.032Z,15.10
2017-11-21T22:14:37.961Z,14.60
2017-11-21T22:17:04.260Z,20.70
2017-11-21T22:19:31.235Z,15.93
2017-11-21T22:21:57.603Z,16.27
2017-11-21T22:24:25.590Z,15.70
2017-11-21T22:26:51.834Z,13.40
2017-11-21T22:29:18.840Z,17.10
2017-11-21T22:31:45.121Z,13.70
2017-11-21T22:34:11.386Z,14.97
2017-11-21T22:36:37.609Z,12.90
2017-11-21T22:39:04.634Z,15.80
2017-11-21T22:41:30.964Z,11.90
2017-11-21T22:43:57.307Z,11.57
2017-11-21T22:46:23.575Z,12.77
2017-11-21T22:48:49.840Z,13.80
2017-11-21T22:51:16.131Z,12.23
2017-11-21T22:53:42.443Z,18.27
2017-11-21T22:56:08.757Z,12.77
2017-11-21T22:58:34.990Z,22.50
2017-11-21T23:01:02.044Z,12.10
2017-11-21T23:03:28.335Z,14.10
2017-11-21T23:05:54.606Z,13.63
2017-11-21T23:08:20.858Z,13.23
2017-11-21T23:10:47.904Z,13.40
2017-11-21T23:13:14.220Z,13.07
2017-11-21T23:15:41.234Z,12.90
2017-11-21T23:18:07.466Z,12.50
2017-11-21T23:20:33.727Z,18.17
2017-11-21T23:23:00.727Z,15.23
2017-11-21T23:25:26.983Z,14.37
2017-11-21T23:27:53.281Z,11.63
2017-11-21T23:30:19.539Z,11.27
2017-11-21T23:32:45.824Z,12.33
2017-11-21T23:35:12.914Z,11.63
2017-11-21T23:37:39.174Z,13.30
2017-11-21T23:40:05.451Z,12.43
2017-11-21T23:42:31.682Z,13.73
2017-11-21T23:44:57.927Z,11.57
2017-11-21T23:47:24.168Z,15.03
2017-11-21T23:49:50.513Z,10.43
2017-11-21T23:52:16.750Z,13.80
2017-11-21T23:54:43.006Z,10.50
2017-11-21T23:57:09.250Z,11.80
2017-11-21T23:59:35.587Z,11.77
